Time;durP1;ratioP1;P1;durP2;ratioP2;P2;SDS_P1;SDS_P2;PMS_P1;PMS_P2;Temp;Humidity;BMP_temperature;BMP_pressure;BME280_temperature;BME280_humidity;BME280_pressure;Samples;Min_cycle;Max_cycle;Signal;HPM_P1;HPM_P2
2024/03/15 00:01:39;;;;;;;8.63;4.38;;;;;;;17.11;52.40;100658.09;4884377;28;121045;-83
2024/03/15 00:04:07;;;;;;;6.80;3.88;;;;;;;17.09;52.50;100654.69;4902657;28;124710;-82
2024/03/15 00:06:35;;;;;;;7.32;4.00;;;;;;;17.06;52.35;100649.56;4891821;28;124751;-83
2024/03/15 00:09:04;;;;;;;5.50;4.25;;;;;;;17.05;52.40;100659.41;4907913;28;118775;-83
2024/03/15 00:11:31;;;;;;;7.15;4.57;;;;;;;17.03;52.48;100660.50;4888873;28;119919;-83
2024/03/15 00:13:59;;;;;;;7.65;4.40;;;;;;;17.00;52.53;100655.38;4903987;28;126266;-82
2024/03/15 00:16:28;;;;;;;6.43;4.38;;;;;;;16.96;52.68;100659.25;4905523;28;123121;-83
2024/03/15 00:18:57;;;;;;;5.65;4.10;;;;;;;16.95;52.84;100646.84;4889738;28;120824;-82
2024/03/15 00:21:25;;;;;;;6.75;4.60;;;;;;;16.92;52.93;100659.47;4919844;28;118472;-85
2024/03/15 00:23:52;;;;;;;6.03;4.35;;;;;;;16.91;52.93;100656.91;4904142;28;124108;-82
2024/03/15 00:26:20;;;;;;;8.05;4.75;;;;;;;16.89;53.07;100649.00;4903911;28;123244;-82
2024/03/15 00:28:47;;;;;;;6.53;4.50;;;;;;;16.87;52.88;100650.94;4889194;28;120378;-83
2024/03/15 00:31:14;;;;;;;8.45;4.50;;;;;;;16.87;53.05;100645.59;4903887;28;121101;-82
2024/03/15 00:33:42;;;;;;;8.60;4.70;;;;;;;16.86;52.95;100643.91;4906220;28;123851;-82
2024/03/15 00:36:09;;;;;;;6.60;4.53;;;;;;;16.85;52.97;100647.53;4890165;28;124604;-83
2024/03/15 00:38:36;;;;;;;7.45;4.85;;;;;;;16.84;53.11;100648.50;4905869;28;120657;-81
2024/03/15 00:41:03;;;;;;;7.78;4.82;;;;;;;16.83;53.24;100644.09;4904232;28;117184;-81
2024/03/15 00:43:31;;;;;;;6.60;4.63;;;;;;;16.83;53.30;100649.47;4911357;28;124344;-83
2024/03/15 00:45:58;;;;;;;8.15;4.85;;;;;;;16.81;53.13;100639.81;4917756;28;125566;-83
2024/03/15 00:48:26;;;;;;;5.97;4.40;;;;;;;16.80;53.34;100644.31;4898182;28;118402;-85
2024/03/15 00:50:53;;;;;;;9.30;4.65;;;;;;;16.79;53.44;100642.59;4906606;28;120205;-83
2024/03/15 00:53:20;;;;;;;8.07;4.40;;;;;;;16.77;53.55;100639.19;4889138;28;125001;-83
2024/03/15 00:55:48;;;;;;;8.23;4.70;;;;;;;16.76;53.57;100642.81;4890371;28;124136;-83
2024/03/15 00:58:18;;;;;;;6.95;4.50;;;;;;;16.75;53.68;100635.78;4889695;28;119084;-83
2024/03/15 01:00:47;;;;;;;6.05;4.70;;;;;;;16.74;53.52;100634.94;4887621;28;119952;-82
2024/03/15 01:03:16;;;;;;;6.55;4.05;;;;;;;16.73;53.69;100621.69;4890008;28;124043;-83
2024/03/15 01:05:44;;;;;;;7.10;4.90;;;;;;;16.74;53.66;100634.06;4904796;28;123131;-83
2024/03/15 01:08:11;;;;;;;6.45;4.60;;;;;;;16.74;53.68;100634.06;4907327;28;120040;-82
2024/03/15 01:10:38;;;;;;;12.27;4.32;;;;;;;16.73;53.54;100632.38;4901048;28;119200;-83
2024/03/15 01:13:06;;;;;;;6.75;4.38;;;;;;;16.72;53.76;100625.31;4906500;28;125509;-83
2024/03/15 01:15:33;;;;;;;6.05;4.50;;;;;;;16.71;53.73;100628.97;4889650;28;125768;-82
2024/03/15 01:18:01;;;;;;;8.10;4.38;;;;;;;16.70;53.82;100617.38;4901793;28;121336;-84
2024/03/15 01:20:29;;;;;;;6.63;4.43;;;;;;;16.70;53.91;100628.09;4907362;28;120107;-82
2024/03/15 01:22:56;;;;;;;9.20;4.68;;;;;;;16.69;53.83;100620.19;4906474;28;125133;-84
2024/03/15 01:25:24;;;;;;;7.95;4.80;;;;;;;16.69;54.12;100617.53;4886527;28;126642;-83
2024/03/15 01:27:51;;;;;;;5.82;4.70;;;;;;;16.69;54.09;100621.03;4903995;28;119507;-85
2024/03/15 01:30:19;;;;;;;5.75;4.57;;;;;;;16.67;54.17;100614.09;4905090;28;118359;-83
2024/03/15 01:32:47;;;;;;;6.88;4.25;;;;;;;16.68;54.13;100613.13;4901050;28;125820;-81
2024/03/15 01:35:16;;;;;;;5.78;4.53;;;;;;;16.68;54.27;100613.13;4904018;28;125018;-83
2024/03/15 01:37:43;;;;;;;6.70;4.38;;;;;;;16.69;54.21;100614.84;4902656;28;120524;-82
2024/03/15 01:40:11;;;;;;;7.35;4.68;;;;;;;16.69;54.40;100614.84;4889416;28;117897;-83
2024/03/15 01:42:39;;;;;;;6.93;4.80;;;;;;;16.69;54.21;100606.84;4886716;28;122873;-83
2024/03/15 01:45:06;;;;;;;8.45;4.50;;;;;;;16.69;54.27;100604.16;4904595;28;121902;-83
2024/03/15 01:47:34;;;;;;;8.40;4.80;;;;;;;16.69;54.29;100598.81;4886877;28;119246;-82
2024/03/15 01:50:02;;;;;;;7.95;4.35;;;;;;;16.69;54.36;100604.16;4885651;28;118859;-82
2024/03/15 01:52:32;;;;;;;6.72;4.60;;;;;;;16.69;54.27;100601.47;4881915;28;125380;-83
2024/03/15 01:55:01;;;;;;;7.50;4.70;;;;;;;16.69;54.40;100593.47;4905251;28;122911;-85
2024/03/15 01:57:28;;;;;;;7.40;4.70;;;;;;;16.70;54.20;100584.44;4903346;28;118220;-82
2024/03/15 01:59:58;;;;;;;8.25;4.80;;;;;;;16.71;54.28;100591.53;4900695;28;121071;-82
2024/03/15 02:02:28;;;;;;;7.80;4.88;;;;;;;16.70;54.39;100590.66;4898962;28;123238;-82
2024/03/15 02:04:55;;;;;;;8.85;4.50;;;;;;;16.72;54.41;100585.19;4904079;28;125062;-81
2024/03/15 02:07:27;;;;;;;6.93;4.53;;;;;;;16.73;54.39;100584.22;4892001;28;121382;-82
2024/03/15 02:09:55;;;;;;;6.47;4.68;;;;;;;16.74;54.54;100591.28;4903208;28;119289;-82
2024/03/15 02:12:26;;;;;;;7.28;4.75;;;;;;;16.73;54.51;100594.94;4903646;28;123452;-83
2024/03/15 02:14:53;;;;;;;8.13;4.88;;;;;;;16.73;54.42;100597.59;4907840;28;123490;-83
2024/03/15 02:17:21;;;;;;;7.55;4.70;;;;;;;16.74;54.42;100596.63;4891269;28;120763;-82
2024/03/15 02:19:48;;;;;;;7.32;4.22;;;;;;;16.75;54.48;100593.00;4922782;28;119764;-82
2024/03/15 02:22:16;;;;;;;5.85;4.68;;;;;;;16.74;54.42;100601.97;4908162;28;124744;-82
2024/03/15 02:24:44;;;;;;;9.18;5.50;;;;;;;16.74;54.51;100599.28;4903462;28;125022;-82
2024/03/15 02:27:14;;;;;;;7.22;4.55;;;;;;;16.76;54.48;100589.34;4889553;28;120929;-83
2024/03/15 02:29:42;;;;;;;8.52;4.68;;;;;;;16.76;54.52;100600.03;4907863;28;119066;-83
2024/03/15 02:32:10;;;;;;;8.27;4.65;;;;;;;16.75;54.40;100598.34;4909741;28;124009;-81
2024/03/15 02:34:37;;;;;;;7.13;5.05;;;;;;;16.74;54.30;100601.97;4888752;28;125039;-82
2024/03/15 02:37:08;;;;;;;7.55;4.63;;;;;;;16.72;54.51;100603.91;4904355;28;120960;-81
2024/03/15 02:39:35;;;;;;;7.35;4.88;;;;;;;16.71;54.50;100599.53;4903768;28;119100;-82
2024/03/15 02:42:05;;;;;;;8.43;4.60;;;;;;;16.71;54.50;100602.22;4907144;28;123839;-82
2024/03/15 02:44:33;;;;;;;9.07;5.35;;;;;;;16.71;54.51;100602.22;4903288;28;124620;-82
2024/03/15 02:47:00;;;;;;;6.32;4.45;;;;;;;16.69;54.61;100601.47;4907873;28;119645;-81
2024/03/15 02:49:27;;;;;;;5.63;4.47;;;;;;;16.68;54.53;100602.44;4908207;28;119301;-83
2024/03/15 02:51:55;;;;;;;9.02;5.13;;;;;;;16.67;54.59;100601.59;4890243;28;124271;-82
2024/03/15 02:54:24;;;;;;;6.97;4.22;;;;;;;16.66;54.66;100599.88;4892783;28;123392;-83
2024/03/15 02:56:51;;;;;;;7.68;4.55;;;;;;;16.66;54.73;100599.03;4906985;28;119610;-85
2024/03/15 02:59:19;;;;;;;6.15;4.30;;;;;;;16.66;54.61;100604.38;4921850;28;119524;-83
2024/03/15 03:01:46;;;;;;;6.63;5.15;;;;;;;16.65;54.68;100597.31;4906082;28;124295;-84
2024/03/15 03:04:14;;;;;;;7.65;4.68;;;;;;;16.62;54.67;100592.22;4914441;28;121773;-82
2024/03/15 03:06:42;;;;;;;6.65;4.45;;;;;;;16.61;54.84;100601.19;4886391;28;120013;-83
2024/03/15 03:09:10;;;;;;;8.73;4.75;;;;;;;16.60;54.71;100599.50;4901412;28;120647;-83
2024/03/15 03:11:37;;;;;;;6.20;4.38;;;;;;;16.59;54.90;100597.78;4900473;28;126790;-82
2024/03/15 03:14:09;;;;;;;8.15;4.50;;;;;;;16.58;54.87;100596.94;4885736;28;125481;-82
2024/03/15 03:16:36;;;;;;;7.72;4.60;;;;;;;16.59;54.88;100597.78;4902796;28;120510;-85
2024/03/15 03:19:06;;;;;;;6.15;4.40;;;;;;;16.60;54.91;100599.50;4904675;28;122516;-84
2024/03/15 03:21:34;;;;;;;7.93;4.35;;;;;;;16.60;54.88;100602.16;4919912;28;125158;-83
2024/03/15 03:24:01;;;;;;;8.95;4.57;;;;;;;16.60;54.74;100599.50;4903702;28;124946;-82
2024/03/15 03:26:29;;;;;;;8.45;4.35;;;;;;;16.60;54.81;100604.84;4890134;28;118793;-83
2024/03/15 03:28:56;;;;;;;6.47;4.20;;;;;;;16.61;54.70;100601.19;4903738;28;118235;-83
2024/03/15 03:31:23;;;;;;;7.90;4.07;;;;;;;16.60;54.80;100595.00;4903716;28;123860;-82
2024/03/15 03:33:51;;;;;;;7.38;4.25;;;;;;;16.62;54.98;100597.56;4888012;28;124221;-83
2024/03/15 03:36:18;;;;;;;6.55;4.38;;;;;;;16.63;54.65;100604.59;4903032;28;120243;-83
2024/03/15 03:38:45;;;;;;;6.30;4.22;;;;;;;16.63;55.14;100604.59;4905669;28;119367;-82
2024/03/15 03:41:12;;;;;;;8.15;4.15;;;;;;;16.63;55.12;100604.59;4890033;28;124839;-84
2024/03/15 03:43:40;;;;;;;8.20;4.20;;;;;;;16.62;55.01;100605.56;4904550;28;124476;-82
2024/03/15 03:46:07;;;;;;;7.43;4.10;;;;;;;16.61;54.98;100606.53;4901433;28;120366;-82
2024/03/15 03:48:34;;;;;;;6.93;4.20;;;;;;;16.63;55.08;100607.25;4905812;28;120501;-82
2024/03/15 03:51:01;;;;;;;6.35;4.32;;;;;;;16.63;55.27;100609.94;4905370;28;123498;-83
2024/03/15 03:53:30;;;;;;;6.55;4.47;;;;;;;16.63;55.13;100604.59;4904145;28;124904;-82
2024/03/15 03:55:57;;;;;;;8.13;4.20;;;;;;;16.63;55.30;100609.94;4884227;28;120341;-83
2024/03/15 03:58:24;;;;;;;6.85;3.88;;;;;;;16.65;55.13;100613.34;4906080;28;120548;-84
2024/03/15 04:00:52;;;;;;;6.72;4.47;;;;;;;16.64;55.00;100617.84;4906284;28;122927;-85
2024/03/15 04:03:19;;;;;;;7.43;4.28;;;;;;;16.64;55.18;100623.19;4902527;28;125086;-84
2024/03/15 04:05:47;;;;;;;6.45;4.35;;;;;;;16.65;55.22;100621.38;4889172;28;119778;-84
2024/03/15 04:08:15;;;;;;;6.03;3.88;;;;;;;16.65;55.18;100608.00;4887120;28;120256;-83
2024/03/15 04:10:43;;;;;;;6.18;4.07;;;;;;;16.66;55.17;100617.75;4886576;28;125034;-84
2024/03/15 04:13:11;;;;;;;8.20;3.92;;;;;;;16.65;55.03;100624.03;4904358;28;123818;-82
2024/03/15 04:15:38;;;;;;;5.43;3.63;;;;;;;16.66;55.37;100617.75;4902519;28;119302;-82
2024/03/15 04:18:05;;;;;;;7.20;3.92;;;;;;;16.66;55.31;100615.91;4907452;28;121525;-83
2024/03/15 04:20:33;;;;;;;6.75;3.53;;;;;;;16.67;55.28;100627.47;4896897;28;125546;-83
2024/03/15 04:23:01;;;;;;;7.45;4.30;;;;;;;16.67;55.25;100622.09;4904444;28;125537;-84
2024/03/15 04:25:28;;;;;;;11.88;3.95;;;;;;;16.67;55.21;100624.78;4889160;28;120446;-83
2024/03/15 04:27:56;;;;;;;8.60;4.20;;;;;;;16.67;55.15;100616.75;4923120;28;120306;-82
2024/03/15 04:30:23;;;;;;;9.95;4.00;;;;;;;16.68;55.13;100619.31;4891575;28;125228;-83
2024/03/15 04:32:52;;;;;;;7.57;4.10;;;;;;;16.69;55.24;100615.69;4906118;28;122927;-83
2024/03/15 04:35:19;;;;;;;6.70;4.22;;;;;;;16.70;55.26;100616.53;4905721;28;118744;-83
2024/03/15 04:37:47;;;;;;;6.35;4.00;;;;;;;16.70;55.27;100613.88;4907881;28;119517;-83
2024/03/15 04:40:14;;;;;;;8.57;4.00;;;;;;;16.70;55.23;100611.19;4908245;28;123673;-83
2024/03/15 04:42:42;;;;;;;6.88;3.88;;;;;;;16.71;55.15;100612.91;4907503;28;122450;-82
2024/03/15 04:45:10;;;;;;;9.18;3.75;;;;;;;16.71;55.09;100618.25;4890791;28;118970;-83
2024/03/15 04:47:38;;;;;;;7.85;4.28;;;;;;;16.71;55.26;100607.56;4906350;28;118442;-82
2024/03/15 04:50:08;;;;;;;8.20;4.03;;;;;;;16.71;55.41;100607.56;4909008;28;125066;-84
2024/03/15 04:52:36;;;;;;;7.35;4.35;;;;;;;16.72;55.48;100614.59;4907474;28;123423;-82
2024/03/15 04:55:04;;;;;;;7.55;3.67;;;;;;;16.72;55.40;100603.91;4909635;28;118754;-83
2024/03/15 04:57:31;;;;;;;6.05;3.72;;;;;;;16.73;55.12;100605.63;4909439;28;119369;-85
2024/03/15 04:59:59;;;;;;;7.22;3.75;;;;;;;16.74;55.34;100607.31;4906493;28;124074;-82
2024/03/15 05:02:27;;;;;;;6.82;4.32;;;;;;;16.73;55.33;100605.63;4910428;28;125049;-82
2024/03/15 05:04:55;;;;;;;7.90;4.00;;;;;;;16.73;55.32;100617.16;4890738;28;119991;-82
2024/03/15 05:07:22;;;;;;;7.38;3.80;;;;;;;16.74;55.26;100607.31;4926193;28;119103;-82
2024/03/15 05:09:49;;;;;;;7.38;4.13;;;;;;;16.74;55.18;100612.66;4907451;28;125021;-82
2024/03/15 05:12:17;;;;;;;7.20;3.55;;;;;;;16.73;55.39;100617.16;4890823;28;124299;-82
2024/03/15 05:14:44;;;;;;;6.47;4.00;;;;;;;16.74;55.53;100612.66;4891129;28;119597;-82
2024/03/15 05:17:12;;;;;;;7.10;3.75;;;;;;;16.73;55.44;100613.66;4912166;28;118342;-82
2024/03/15 05:19:40;;;;;;;8.68;3.97;;;;;;;16.73;55.45;100606.47;4917541;28;123007;-83
2024/03/15 05:22:07;;;;;;;7.13;3.65;;;;;;;16.75;55.35;100609.03;4905320;28;125658;-84
2024/03/15 05:24:34;;;;;;;8.77;3.97;;;;;;;16.77;55.27;100607.09;4904314;28;120744;-82
2024/03/15 05:27:02;;;;;;;5.72;3.50;;;;;;;16.77;55.36;100606.25;4907409;28;121545;-82
2024/03/15 05:29:30;;;;;;;7.00;3.67;;;;;;;16.77;55.45;100607.09;4904586;28;125435;-83
2024/03/15 05:31:57;;;;;;;11.80;4.38;;;;;;;16.77;55.44;100614.28;4887449;28;123527;-82
2024/03/15 05:34:26;;;;;;;8.25;4.00;;;;;;;16.76;55.43;100605.38;4903855;28;118816;-83
2024/03/15 05:36:54;;;;;;;7.80;3.78;;;;;;;16.75;55.46;100614.38;4888406;28;120001;-82
2024/03/15 05:39:21;;;;;;;10.90;4.13;;;;;;;16.75;55.46;100614.38;4905156;28;125110;-82
2024/03/15 05:41:48;;;;;;;6.25;4.05;;;;;;;16.75;55.65;100614.38;4904401;28;123913;-83
2024/03/15 05:44:16;;;;;;;5.57;3.65;;;;;;;16.74;55.56;100616.22;4903455;28;120652;-81
2024/03/15 05:46:43;;;;;;;9.32;4.50;;;;;;;16.75;55.62;100619.75;4902539;28;118965;-83
2024/03/15 05:49:10;;;;;;;5.88;3.50;;;;;;;16.72;55.56;100615.44;4900884;28;123096;-87
2024/03/15 05:51:38;;;;;;;7.13;3.92;;;;;;;16.73;55.63;100629.69;4904480;28;124643;-82
2024/03/15 05:54:05;;;;;;;7.97;4.30;;;;;;;16.73;55.68;100627.88;4884928;28;119108;-82
2024/03/15 05:56:32;;;;;;;8.85;4.07;;;;;;;16.71;55.65;100624.47;4903319;28;119518;-83
2024/03/15 05:59:00;;;;;;;8.00;4.30;;;;;;;16.72;55.82;100627.97;4904905;28;124325;-83
2024/03/15 06:01:28;;;;;;;6.75;4.20;;;;;;;16.70;55.88;100627.25;4900962;28;123933;-84
2024/03/15 06:03:55;;;;;;;8.10;3.95;;;;;;;16.69;55.96;100630.91;4900361;28;120497;-83
2024/03/15 06:06:24;;;;;;;7.57;3.72;;;;;;;16.68;55.90;100629.19;4903326;28;118916;-84
2024/03/15 06:08:51;;;;;;;8.85;4.30;;;;;;;16.67;55.97;100632.81;4889637;28;124968;-83
2024/03/15 06:11:20;;;;;;;8.95;3.85;;;;;;;16.66;56.04;100625.75;4901782;28;125085;-83
2024/03/15 06:13:48;;;;;;;5.30;2.75;;;;;;;16.63;56.13;100629.53;4907118;28;121209;-84
2024/03/15 06:16:16;;;;;;;4.28;2.75;;;;;;;16.63;56.18;100642.03;4906091;28;118463;-83
2024/03/15 06:18:44;;;;;;;5.70;2.78;;;;;;;16.63;55.96;100637.56;4900711;28;124308;-84
2024/03/15 06:21:11;;;;;;;4.50;2.50;;;;;;;16.62;56.09;100629.63;4879402;28;125598;-84
2024/03/15 06:23:38;;;;;;;5.45;2.60;;;;;;;16.63;56.06;100636.69;4907712;28;120610;-83
2024/03/15 06:26:08;;;;;;;3.97;2.80;;;;;;;16.63;56.03;100642.03;4883988;28;120046;-83
2024/03/15 06:28:36;;;;;;;4.28;2.47;;;;;;;16.62;56.01;100640.34;4889446;28;123153;-87
2024/03/15 06:31:04;;;;;;;5.95;2.90;;;;;;;16.62;56.04;100635.00;4905125;28;124566;-83
2024/03/15 06:33:33;;;;;;;7.57;3.33;;;;;;;16.63;56.28;100647.38;4891419;28;119824;-84
2024/03/15 06:36:03;;;;;;;4.63;3.67;;;;;;;16.61;56.34;100635.94;4899451;28;118702;-83
2024/03/15 06:38:40;;;;;;;8.30;3.60;;;;;;;16.63;56.52;100644.69;4906595;28;124217;-84
2024/03/15 06:41:13;;;;;;;8.25;3.75;;;;;;;16.62;56.53;100643.00;4891153;28;125756;-84
2024/03/15 06:43:42;;;;;;;8.18;3.40;;;;;;;16.63;56.57;100642.03;4909576;28;119742;-83
2024/03/15 06:46:19;;;;;;;5.93;3.08;;;;;;;16.64;56.56;100649.09;4892482;28;120057;-83
2024/03/15 06:49:12;;;;;;;6.18;3.20;;;;;;;16.66;56.67;100647.16;4890336;28;124030;-82
2024/03/15 06:54:26;;;;;;;4.82;3.00;;;;;;;16.66;56.67;100649.84;4908992;28;118409;-83
2024/03/15 06:56:55;;;;;;;5.93;2.80;;;;;;;16.68;56.75;100655.91;4914912;28;118564;-86
2024/03/15 06:59:23;;;;;;;6.05;3.20;;;;;;;16.68;57.10;100645.22;4924189;28;125360;-82
2024/03/15 07:01:52;;;;;;;4.45;3.22;;;;;;;16.71;56.74;100655.72;4909523;28;123598;-83
2024/03/15 07:04:20;;;;;;;6.13;3.10;;;;;;;16.72;57.07;100652.03;4915555;28;119118;-83
2024/03/15 07:06:47;;;;;;;6.13;3.00;;;;;;;16.72;56.76;100652.03;4913486;28;118854;-83
2024/03/15 07:09:14;;;;;;;5.13;3.40;;;;;;;16.75;56.95;100657.19;4909117;28;124712;-83
2024/03/15 07:11:47;;;;;;;6.47;3.03;;;;;;;16.75;56.97;100657.19;4912434;28;124813;-83
2024/03/15 07:14:15;;;;;;;7.45;3.35;;;;;;;16.74;57.19;100656.34;4905301;28;118326;-83
2024/03/15 07:16:43;;;;;;;5.43;3.00;;;;;;;16.78;57.08;100656.94;4904315;28;120363;-82
2024/03/15 07:19:12;;;;;;;5.45;2.78;;;;;;;16.80;57.11;100660.38;4893099;28;123254;-82
2024/03/15 07:21:42;;;;;;;4.55;2.67;;;;;;;16.83;57.00;100664.66;4895473;28;123729;-84
2024/03/15 07:24:10;;;;;;;4.18;2.38;;;;;;;16.84;57.04;100672.59;4910314;28;119879;-82
2024/03/15 07:26:39;;;;;;;5.57;2.40;;;;;;;16.87;57.07;100672.34;4914758;28;120689;-82
2024/03/15 07:29:07;;;;;;;2.80;1.98;;;;;;;16.92;56.96;100680.03;4900905;28;122119;-82
2024/03/15 07:31:34;;;;;;;6.22;2.30;;;;;;;17.00;57.14;100682.13;4904458;28;124873;-84
2024/03/15 07:34:02;;;;;;;4.65;2.55;;;;;;;17.10;57.02;100672.44;4891045;28;118837;-82
2024/03/15 07:36:29;;;;;;;4.38;2.22;;;;;;;17.20;57.04;100676.16;4888479;28;119458;-83
2024/03/15 07:38:57;;;;;;;5.43;3.30;;;;;;;17.28;57.05;100681.75;4896049;28;124149;-83
2024/03/15 07:41:28;;;;;;;4.35;2.58;;;;;;;17.35;57.25;100692.00;4907633;28;122973;-84
2024/03/15 07:43:56;;;;;;;5.63;3.38;;;;;;;17.41;57.01;100686.19;4887467;28;120244;-82
2024/03/15 07:46:24;;;;;;;7.70;2.90;;;;;;;17.43;56.82;100690.44;4888654;28;119788;-82
2024/03/15 07:48:52;;;;;;;5.70;3.03;;;;;;;17.46;56.88;100689.34;4910430;28;124014;-83
2024/03/15 07:51:20;;;;;;;5.88;3.13;;;;;;;17.48;56.84;100692.78;4891649;28;125923;-83
2024/03/15 07:53:50;;;;;;;7.25;3.70;;;;;;;17.48;56.72;100692.78;4888522;28;120976;-82
2024/03/15 07:56:19;;;;;;;6.82;2.65;;;;;;;17.49;56.81;100694.47;4903329;28;120805;-83
2024/03/15 07:58:46;;;;;;;5.03;2.13;;;;;;;17.50;56.66;100691.69;4906382;28;124494;-82
2024/03/15 08:01:14;;;;;;;5.28;2.90;;;;;;;17.53;56.78;100695.94;4904536;28;125151;-82
2024/03/15 08:03:43;;;;;;;5.22;2.33;;;;;;;17.55;56.72;100691.31;4880884;28;120838;-83
2024/03/15 08:06:10;;;;;;;5.43;2.40;;;;;;;17.59;56.65;100695.47;4884582;28;120205;-82
2024/03/15 08:08:38;;;;;;;4.45;2.60;;;;;;;17.64;56.63;100690.63;4898960;28;124103;-83
2024/03/15 08:11:05;;;;;;;3.95;2.72;;;;;;;17.69;56.59;100690.28;4901617;28;124713;-84
2024/03/15 08:13:37;;;;;;;7.15;2.58;;;;;;;17.74;56.67;100681.88;4890317;28;120138;-83
2024/03/15 08:16:23;;;;;;;5.70;2.53;;;;;;;17.81;56.73;100688.47;4880474;28;119933;-86
2024/03/15 08:18:53;;;;;;;4.05;2.20;;;;;;;17.83;56.59;100681.16;4901432;28;124787;-83
2024/03/15 08:21:24;;;;;;;4.50;2.45;;;;;;;17.85;56.47;100684.59;4879553;28;124860;-82
2024/03/15 08:23:52;;;;;;;6.88;2.53;;;;;;;17.88;56.39;100689.72;4905284;28;119975;-83
2024/03/15 08:26:20;;;;;;;4.80;2.53;;;;;;;17.91;56.35;100689.47;4905029;28;119157;-83
2024/03/15 08:28:49;;;;;;;5.35;2.28;;;;;;;17.96;56.50;100692.66;4903330;28;124241;-86
2024/03/15 08:31:16;;;;;;;5.53;2.50;;;;;;;17.99;56.32;100692.41;4895299;28;124979;-82
2024/03/15 08:33:44;;;;;;;4.82;2.85;;;;;;;18.03;56.44;100693.88;4887586;28;120836;-83
2024/03/15 08:36:12;;;;;;;5.55;2.60;;;;;;;18.06;56.18;100693.66;4906462;28;118966;-84
2024/03/15 08:38:40;;;;;;;6.03;2.58;;;;;;;18.08;56.11;100701.53;4888318;28;125393;-83
2024/03/15 08:41:07;;;;;;;4.25;2.30;;;;;;;18.14;56.26;100700.19;4889829;28;124451;-83
2024/03/15 08:43:36;;;;;;;4.13;2.50;;;;;;;18.17;56.12;100695.44;4886513;28;121963;-83
2024/03/15 08:46:05;;;;;;;4.97;2.47;;;;;;;18.20;56.16;100705.09;4897609;28;119645;-85
2024/03/15 08:48:32;;;;;;;4.07;2.50;;;;;;;18.23;56.29;100702.16;4903189;28;125152;-83
2024/03/15 08:51:03;;;;;;;4.85;2.53;;;;;;;18.25;56.23;100697.53;4898284;28;123880;-83
2024/03/15 08:53:32;;;;;;;4.70;2.45;;;;;;;18.29;56.21;100693.66;4916670;28;119446;-82
2024/03/15 08:56:00;;;;;;;4.70;2.20;;;;;;;18.34;55.92;100695.94;4902647;28;119969;-83
2024/03/15 08:58:27;;;;;;;4.13;2.38;;;;;;;18.39;56.11;100697.28;4885117;28;123594;-83
2024/03/15 09:00:55;;;;;;;3.90;2.30;;;;;;;18.44;56.02;100697.78;4905322;28;121834;-83
2024/03/15 09:03:25;;;;;;;5.13;2.38;;;;;;;18.47;55.93;100697.50;4880310;28;120199;-84
2024/03/15 09:05:53;;;;;;;7.72;2.50;;;;;;;18.51;55.80;100702.63;4922146;28;119123;-82
2024/03/15 09:08:20;;;;;;;3.97;2.00;;;;;;;18.54;55.85;100697.03;4884313;28;125106;-83
2024/03/15 09:10:48;;;;;;;6.30;2.40;;;;;;;18.57;55.91;100696.75;4907635;28;124789;-84
2024/03/15 09:13:18;;;;;;;5.65;2.00;;;;;;;18.60;55.89;100701.88;4903919;28;120410;-82
2024/03/15 09:15:45;;;;;;;3.63;2.03;;;;;;;18.63;55.85;100712.38;4908077;28;118658;-83
2024/03/15 09:18:13;;;;;;;6.03;1.88;;;;;;;18.65;55.67;100705.06;4882202;28;123309;-83
2024/03/15 09:20:44;;;;;;;5.40;1.98;;;;;;;18.67;55.66;100714.69;4891595;28;125840;-82
2024/03/15 09:23:12;;;;;;;4.45;1.90;;;;;;;18.66;55.49;100723.69;4912308;28;118340;-84
2024/03/15 09:25:42;;;;;;;3.08;1.63;;;;;;;18.63;55.39;100723.13;4911138;28;120505;-83
2024/03/15 09:28:11;;;;;;;4.50;1.90;;;;;;;18.55;55.55;100720.19;4894321;28;123385;-82
2024/03/15 09:30:54;;;;;;;2.72;1.70;;;;;;;18.46;55.42;100722.63;4889925;28;125367;-83
2024/03/15 09:33:38;;;;;;;2.55;1.75;;;;;;;18.40;55.27;100728.50;4908191;28;120114;-83
2024/03/15 09:36:10;;;;;;;4.20;1.83;;;;;;;18.33;55.46;100727.28;4901760;28;120842;-83
2024/03/15 09:38:38;;;;;;;5.35;1.90;;;;;;;18.29;55.39;100733.84;4892127;28;123106;-83
2024/03/15 09:41:07;;;;;;;4.03;1.90;;;;;;;18.24;55.67;100733.38;4907958;28;123887;-82
2024/03/15 09:43:37;;;;;;;2.80;1.73;;;;;;;18.21;55.60;100733.59;4914447;28;118776;-85
2024/03/15 09:46:06;;;;;;;3.50;2.03;;;;;;;18.17;55.66;100743.69;4923324;28;119435;-85
2024/03/15 09:48:37;;;;;;;2.70;1.80;;;;;;;18.12;55.73;100739.69;4909944;28;122302;-83
2024/03/15 09:51:08;;;;;;;4.28;1.70;;;;;;;18.07;55.76;100740.06;4905628;28;122777;-84
2024/03/15 09:53:36;;;;;;;3.45;2.00;;;;;;;17.99;56.01;100735.28;4906937;28;119010;-83
2024/03/15 09:56:04;;;;;;;6.93;1.90;;;;;;;17.96;55.84;100746.25;4883416;28;120099;-83
2024/03/15 09:58:32;;;;;;;4.60;2.03;;;;;;;17.92;56.36;100744.78;4903125;28;124319;-84
2024/03/15 10:01:01;;;;;;;3.78;1.70;;;;;;;17.91;56.48;100743.06;4902527;28;124917;-83
2024/03/15 10:03:30;;;;;;;3.20;1.52;;;;;;;17.91;56.66;100748.41;4902526;28;120314;-83
2024/03/15 10:05:57;;;;;;;2.42;1.58;;;;;;;17.91;56.73;100751.09;4893196;28;120122;-84
2024/03/15 10:08:27;;;;;;;2.67;1.70;;;;;;;17.89;56.47;100750.38;4886820;28;125379;-83
2024/03/15 10:10:55;;;;;;;3.25;1.80;;;;;;;17.88;56.83;100748.66;4888872;28;126187;-83
2024/03/15 10:13:22;;;;;;;2.22;1.45;;;;;;;17.90;56.81;100741.38;4889050;28;120956;-83
2024/03/15 10:15:50;;;;;;;3.85;1.42;;;;;;;17.91;56.90;100748.41;4905003;28;119941;-82
2024/03/15 10:18:17;;;;;;;6.32;1.80;;;;;;;17.92;57.04;100739.41;4906958;28;124251;-82
2024/03/15 10:20:47;;;;;;;3.42;1.88;;;;;;;18.01;57.20;100732.50;4906479;28;125033;-83
2024/03/15 10:23:14;;;;;;;2.33;1.40;;;;;;;18.12;57.04;100737.00;4897793;28;120156;-83
2024/03/15 10:25:41;;;;;;;4.20;1.80;;;;;;;18.23;57.42;100731.66;4885989;28;120480;-83
2024/03/15 10:28:11;;;;;;;2.80;1.40;;;;;;;18.37;57.37;100739.47;4888225;28;125957;-83
2024/03/15 10:30:42;;;;;;;2.55;1.73;;;;;;;18.51;57.63;100741.03;4893757;28;124254;-84
2024/03/15 10:33:10;;;;;;;3.05;1.80;;;;;;;18.64;57.31;100740.91;4907922;28;120433;-82
2024/03/15 10:35:38;;;;;;;5.40;2.20;;;;;;;18.76;57.23;100742.59;4890071;28;119873;-82
2024/03/15 10:38:05;;;;;;;3.38;1.90;;;;;;;18.86;57.00;100740.88;4907242;28;123763;-81
2024/03/15 10:40:35;;;;;;;4.32;1.90;;;;;;;18.92;56.82;100741.38;4910518;28;126002;-81
2024/03/15 10:43:08;;;;;;;5.80;1.98;;;;;;;18.95;56.79;100744.66;4906857;28;121532;-81
2024/03/15 10:45:36;;;;;;;3.63;1.75;;;;;;;18.99;56.70;100746.13;4905544;28;117246;-81
2024/03/15 10:48:08;;;;;;;4.82;1.70;;;;;;;19.01;56.60;100735.25;4891759;28;125849;-81
2024/03/15 10:50:38;;;;;;;3.83;1.80;;;;;;;19.07;56.65;100732.06;4906282;28;123880;-83
2024/03/15 10:53:13;;;;;;;4.93;1.52;;;;;;;19.12;56.39;100729.84;4915836;28;119307;-82
2024/03/15 10:55:42;;;;;;;;;;;;;;;19.14;56.42;100733.25;4900699;28;120286;-81
2024/03/15 10:58:11;;;;;;;2.53;2.28;;;;;;;19.20;55.96;100732.75;4901042;28;124585;-81
2024/03/15 11:00:39;;;;;;;4.22;1.75;;;;;;;19.24;56.19;100736.88;4907297;28;125230;-83
2024/03/15 11:03:15;;;;;;;4.63;1.90;;;;;;;19.29;56.06;100735.63;4903575;28;119892;-80
2024/03/15 11:05:45;;;;;;;5.45;1.60;;;;;;;19.35;56.07;100719.03;4890209;28;119845;-80
2024/03/15 11:08:16;;;;;;;4.18;1.40;;;;;;;19.40;55.92;100711.41;4905884;28;123615;-83
2024/03/15 11:10:55;;;;;;;4.15;1.50;;;;;;;19.44;55.42;100719.09;4891173;28;122739;-81
2024/03/15 11:13:23;;;;;;;2.63;1.20;;;;;;;19.46;55.35;100713.59;4906727;28;120678;-81
2024/03/15 11:15:55;;;;;;;2.10;1.17;;;;;;;19.47;55.06;100711.75;4906969;28;119712;-81
2024/03/15 11:18:23;;;;;;;4.13;1.00;;;;;;;19.49;54.76;100705.25;4906386;28;124315;-80
2024/03/15 11:20:56;;;;;;;3.42;1.50;;;;;;;19.51;55.00;100714.03;4901234;28;123310;-82
2024/03/15 11:23:26;;;;;;;4.78;1.60;;;;;;;19.52;54.93;100709.53;4900544;28;118590;-82
2024/03/15 11:26:02;;;;;;;4.63;1.35;;;;;;;19.51;54.54;100719.41;4904816;28;120523;-81